createdAt,value
2018-11-21T00:00:03.036Z,1.60
2018-11-21T00:02:30.401Z,1.61
2018-11-21T00:04:57.774Z,1.72
2018-11-21T00:07:26.101Z,1.77
2018-11-21T00:10:12.418Z,1.76
2018-11-21T00:12:40.403Z,1.72
2018-11-21T00:15:08.685Z,1.65
2018-11-21T00:17:56.245Z,1.61
2018-11-21T00:20:23.625Z,1.58
2018-11-21T00:22:51.186Z,1.57
2018-11-21T00:25:37.537Z,1.58
2018-11-21T00:28:04.940Z,1.58
2018-11-21T00:30:51.294Z,1.59
2018-11-21T00:33:18.785Z,1.58
2018-11-21T00:35:46.602Z,1.61
2018-11-21T00:38:32.844Z,1.60
2018-11-21T00:41:00.813Z,1.61
2018-11-21T00:43:28.189Z,1.63
2018-11-21T00:45:55.547Z,1.65
2018-11-21T00:48:41.896Z,1.65
2018-11-21T00:51:09.565Z,1.65
2018-11-21T00:53:39.075Z,1.66
2018-11-21T00:56:06.469Z,1.67
2018-11-21T00:58:52.748Z,1.64
2018-11-21T01:01:20.601Z,1.62
2018-11-21T01:03:47.942Z,1.59
2018-11-21T01:06:34.232Z,1.62
2018-11-21T01:09:01.600Z,1.66
2018-11-21T01:11:29.027Z,1.74
2018-11-21T01:13:56.392Z,1.81
2018-11-21T01:16:42.749Z,1.86
2018-11-21T01:19:10.101Z,1.89
2018-11-21T01:21:37.610Z,1.90
2018-11-21T01:24:23.951Z,1.87
2018-11-21T01:26:51.450Z,1.84
2018-11-21T01:29:18.956Z,1.76
2018-11-21T01:32:05.330Z,1.68
2018-11-21T01:34:33.263Z,1.63
2018-11-21T01:37:00.634Z,1.58
2018-11-21T01:39:28.035Z,1.53
2018-11-21T01:42:14.393Z,1.49
2018-11-21T01:44:41.852Z,1.49
2018-11-21T01:47:09.276Z,1.49
2018-11-21T01:49:55.551Z,1.45
2018-11-21T01:52:22.924Z,1.44
2018-11-21T01:54:50.423Z,1.45
2018-11-21T01:57:36.643Z,1.47
2018-11-21T02:00:04.475Z,1.49
2018-11-21T02:02:31.888Z,1.51
2018-11-21T02:04:59.348Z,1.50
2018-11-21T02:07:27.235Z,1.47
2018-11-21T02:09:54.557Z,1.44
2018-11-21T02:12:22.069Z,1.42
2018-11-21T02:14:49.403Z,1.42
2018-11-21T02:17:35.727Z,1.37
2018-11-21T02:20:03.168Z,1.34
2018-11-21T02:22:30.605Z,1.29
2018-11-21T02:25:16.976Z,1.22
2018-11-21T02:27:44.342Z,1.17
2018-11-21T02:30:11.804Z,1.12
2018-11-21T02:32:39.275Z,1.15
2018-11-21T02:35:25.528Z,1.17
2018-11-21T02:37:53.319Z,1.18
2018-11-21T02:40:20.692Z,1.24
2018-11-21T02:43:07.020Z,1.36
2018-11-21T02:45:34.471Z,1.46
2018-11-21T02:48:01.971Z,1.57
2018-11-21T02:50:48.577Z,1.61
2018-11-21T02:53:16.062Z,1.63
2018-11-21T02:55:43.467Z,1.58
2018-11-21T02:58:29.793Z,1.55
2018-11-21T03:00:57.122Z,1.54
2018-11-21T03:03:24.563Z,1.50
2018-11-21T03:05:51.981Z,1.49
2018-11-21T03:08:38.245Z,1.50
2018-11-21T03:11:05.687Z,1.56
2018-11-21T03:13:33.056Z,1.62
2018-11-21T03:16:19.455Z,1.62
2018-11-21T03:18:47.124Z,1.59
2018-11-21T03:21:14.614Z,1.51
2018-11-21T03:24:00.846Z,1.43
2018-11-21T03:26:28.311Z,1.35
2018-11-21T03:28:55.653Z,1.25
2018-11-21T03:31:41.981Z,1.15
2018-11-21T03:34:09.407Z,1.08
2018-11-21T03:39:27.151Z,1.01
2018-11-21T03:41:54.574Z,0.96
2018-11-21T03:44:21.929Z,0.91
2018-11-21T03:47:08.284Z,0.87
2018-11-21T03:49:35.656Z,0.82
2018-11-21T03:52:03.193Z,0.77
2018-11-21T03:57:16.939Z,0.65
2018-11-21T03:59:44.300Z,0.60
2018-11-21T04:02:11.658Z,0.56
2018-11-21T04:04:58.023Z,0.53
2018-11-21T04:07:25.346Z,0.52
2018-11-21T04:09:53.238Z,0.49
2018-11-21T04:12:39.569Z,0.45
2018-11-21T04:15:06.896Z,0.40
2018-11-21T04:17:34.240Z,0.34
2018-11-21T04:23:12.161Z,0.27
2018-11-21T04:28:44.721Z,0.18
2018-11-21T04:31:12.433Z,0.14
2018-11-21T04:33:39.907Z,0.11
2018-11-21T04:39:02.651Z,0.07
2018-11-21T04:41:30.015Z,0.01
2018-11-21T04:43:57.850Z,0.01
2018-11-21T04:46:44.168Z,-0.01
2018-11-21T04:49:11.529Z,-0.02
2018-11-21T04:55:00.132Z,-0.08
2018-11-21T04:57:27.480Z,-0.07
2018-11-21T05:00:13.801Z,-0.09
2018-11-21T05:02:41.139Z,-0.11
2018-11-21T05:05:27.463Z,-0.10
2018-11-21T05:07:54.908Z,-0.08
2018-11-21T05:10:41.170Z,-0.06
2018-11-21T05:13:08.582Z,-0.03
2018-11-21T05:15:54.854Z,-0.03
2018-11-21T05:18:22.303Z,-0.06
2018-11-21T05:20:49.825Z,-0.10
2018-11-21T05:23:38.059Z,-0.13
2018-11-21T05:26:03.582Z,-0.15
2018-11-21T05:28:30.932Z,-0.16
2018-11-21T05:31:17.247Z,-0.11
2018-11-21T05:33:44.662Z,-0.09
2018-11-21T05:36:31.006Z,-0.11
2018-11-21T05:38:58.413Z,-0.12
2018-11-21T05:41:44.748Z,-0.12
2018-11-21T05:44:31.419Z,-0.12
2018-11-21T05:47:17.355Z,-0.15
2018-11-21T05:49:44.758Z,-0.15
2018-11-21T05:52:31.064Z,-0.16
2018-11-21T05:54:58.401Z,-0.19
2018-11-21T05:57:25.807Z,-0.23
2018-11-21T06:00:12.145Z,-0.25
2018-11-21T06:02:39.944Z,-0.27
2018-11-21T06:05:07.362Z,-0.31
2018-11-21T06:07:53.619Z,-0.31
2018-11-21T06:10:21.067Z,-0.32
2018-11-21T06:12:48.403Z,-0.34
2018-11-21T06:15:36.870Z,-0.38
2018-11-21T06:18:04.238Z,-0.39
2018-11-21T06:20:31.600Z,-0.43
2018-11-21T06:23:17.914Z,-0.46
2018-11-21T06:25:45.270Z,-0.46
2018-11-21T06:28:12.678Z,-0.48
2018-11-21T06:33:31.973Z,-0.52
2018-11-21T06:36:18.296Z,-0.53
2018-11-21T06:38:45.628Z,-0.53
2018-11-21T06:41:31.946Z,-0.52
2018-11-21T06:43:59.358Z,-0.51
2018-11-21T06:46:45.683Z,-0.48
2018-11-21T06:49:13.369Z,-0.43
2018-11-21T06:51:59.678Z,-0.42
2018-11-21T06:54:46.013Z,-0.39
2018-11-21T06:57:32.276Z,-0.34
2018-11-21T07:00:00.065Z,-0.28
2018-11-21T07:02:46.340Z,-0.19
2018-11-21T07:05:13.750Z,-0.12
2018-11-21T07:08:00.385Z,0.01
2018-11-21T07:10:27.809Z,0.11
2018-11-21T07:13:14.068Z,0.20
2018-11-21T07:15:41.505Z,0.27
2018-11-21T07:20:57.833Z,0.34
2018-11-21T07:26:11.707Z,0.32
2018-11-21T07:28:39.121Z,0.30
2018-11-21T07:31:06.496Z,0.30
2018-11-21T07:33:52.836Z,0.30
2018-11-21T07:36:20.173Z,0.33
2018-11-21T07:38:47.512Z,0.41
2018-11-21T07:41:33.836Z,0.49
2018-11-21T07:44:01.241Z,0.54
2018-11-21T07:46:28.628Z,0.61
2018-11-21T07:49:14.946Z,0.66
2018-11-21T07:51:42.303Z,0.69
2018-11-21T07:54:11.314Z,0.73
2018-11-21T07:56:57.559Z,0.78
2018-11-21T07:59:24.976Z,0.86
2018-11-21T08:02:11.286Z,0.94
2018-11-21T08:04:57.559Z,0.99
2018-11-21T08:07:43.869Z,1.07
2018-11-21T08:10:20.413Z,1.15
2018-11-21T08:13:06.759Z,1.32
2018-11-21T08:15:53.090Z,1.54
2018-11-21T08:18:39.347Z,1.76
2018-11-21T08:21:25.676Z,1.89
2018-11-21T08:24:17.228Z,1.99
2018-11-21T08:27:01.260Z,2.19
2018-11-21T08:29:47.574Z,2.54
2018-11-21T08:32:14.975Z,2.89
2018-11-21T08:34:42.387Z,3.00
2018-11-21T08:37:28.704Z,2.96
2018-11-21T08:39:56.168Z,2.88
2018-11-21T08:42:25.653Z,2.85
2018-11-21T08:45:11.963Z,2.79
2018-11-21T08:47:39.328Z,2.76
2018-11-21T08:50:06.747Z,2.74
2018-11-21T08:52:52.998Z,2.72
2018-11-21T08:55:20.418Z,2.72
2018-11-21T08:57:47.823Z,2.75
2018-11-21T09:00:34.136Z,2.76
2018-11-21T09:03:01.544Z,2.78
2018-11-21T09:05:28.884Z,2.79
2018-11-21T09:08:15.203Z,2.82
2018-11-21T09:10:42.601Z,2.87
2018-11-21T09:13:09.941Z,2.92
2018-11-21T09:15:56.669Z,2.96
2018-11-21T09:18:24.188Z,3.01
2018-11-21T09:20:51.579Z,3.06
2018-11-21T09:23:18.988Z,3.11
2018-11-21T09:25:46.409Z,3.18
2018-11-21T09:28:32.659Z,3.26
2018-11-21T09:31:07.283Z,3.36
2018-11-21T09:33:44.066Z,3.49
2018-11-21T09:36:11.475Z,3.63
2018-11-21T09:38:41.099Z,3.77
2018-11-21T09:41:27.413Z,3.95
2018-11-21T09:43:54.867Z,4.12
2018-11-21T09:46:22.295Z,4.42
2018-11-21T09:49:08.920Z,4.92
2018-11-21T09:54:23.822Z,6.82
2018-11-21T09:56:53.464Z,7.92
2018-11-21T09:59:21.812Z,8.77
2018-11-21T10:04:54.393Z,10.24
2018-11-21T10:07:40.737Z,10.92
2018-11-21T10:10:08.110Z,11.34
2018-11-21T10:12:54.449Z,11.78
2018-11-21T10:15:21.863Z,12.05
2018-11-21T10:18:08.193Z,12.26
2018-11-21T10:20:35.535Z,12.32
2018-11-21T10:23:21.857Z,12.57
2018-11-21T10:25:49.293Z,12.86
2018-11-21T10:28:35.941Z,13.37
2018-11-21T10:31:03.388Z,13.70
2018-11-21T10:33:49.762Z,13.97
2018-11-21T10:36:17.121Z,14.16
2018-11-21T10:39:03.431Z,14.22
2018-11-21T10:41:30.849Z,14.30
2018-11-21T10:44:17.115Z,14.60
2018-11-21T10:46:45.544Z,14.78
2018-11-21T10:49:31.811Z,14.85
2018-11-21T10:51:59.231Z,14.82
2018-11-21T10:54:47.716Z,14.63
2018-11-21T10:57:15.151Z,14.45
2018-11-21T10:59:47.996Z,14.60
2018-11-21T11:02:29.594Z,14.79
2018-11-21T11:05:15.857Z,15.03
2018-11-21T11:08:09.538Z,15.10
2018-11-21T11:13:58.407Z,14.72
2018-11-21T11:16:50.553Z,14.78
2018-11-21T11:19:39.798Z,14.73
2018-11-21T11:22:26.060Z,14.32
2018-11-21T11:25:12.396Z,13.91
2018-11-21T11:27:57.910Z,13.44
2018-11-21T11:30:50.237Z,13.11
2018-11-21T11:33:36.594Z,12.88
2018-11-21T11:36:21.602Z,12.76
2018-11-21T11:39:06.957Z,12.58
2018-11-21T11:41:51.985Z,12.39
2018-11-21T11:44:37.300Z,12.37
2018-11-21T11:47:15.679Z,12.56
2018-11-21T11:50:08.319Z,12.54
2018-11-21T11:52:52.968Z,12.30
2018-11-21T11:55:39.340Z,11.95
2018-11-21T11:58:15.376Z,11.63
2018-11-21T12:01:07.635Z,11.29
2018-11-21T12:03:49.786Z,11.04
2018-11-21T12:06:39.311Z,10.80
2018-11-21T12:09:32.740Z,10.70
2018-11-21T12:12:40.025Z,10.65
2018-11-21T12:15:20.976Z,10.54
2018-11-21T12:21:11.010Z,10.03
2018-11-21T12:23:56.523Z,9.76
2018-11-21T12:26:39.517Z,9.45
2018-11-21T12:32:05.833Z,9.14
2018-11-21T12:34:50.923Z,9.07
2018-11-21T12:37:37.264Z,8.95
2018-11-21T12:40:23.583Z,8.75
2018-11-21T12:43:13.220Z,8.51
2018-11-21T12:45:56.183Z,8.38
2018-11-21T12:48:42.533Z,8.38
2018-11-21T12:51:28.813Z,8.37
2018-11-21T12:54:15.157Z,8.32
2018-11-21T12:57:01.436Z,8.33
2018-11-21T12:59:51.410Z,8.31
2018-11-21T13:02:36.408Z,8.25
2018-11-21T13:05:22.724Z,8.19
2018-11-21T13:08:09.009Z,8.12
2018-11-21T13:10:55.358Z,8.05
2018-11-21T13:13:41.680Z,7.97
2018-11-21T13:16:28.058Z,7.89
2018-11-21T13:19:14.368Z,7.83
2018-11-21T13:21:56.401Z,7.77
2018-11-21T13:24:42.659Z,7.75
2018-11-21T13:27:28.980Z,7.79
2018-11-21T13:30:15.320Z,7.82
2018-11-21T13:33:01.647Z,7.82
2018-11-21T13:35:47.845Z,7.78
2018-11-21T13:38:34.306Z,7.75
2018-11-21T13:41:20.633Z,7.73
2018-11-21T13:44:06.958Z,7.72
2018-11-21T13:46:53.215Z,7.68
2018-11-21T13:49:39.539Z,7.54
2018-11-21T13:52:25.800Z,7.40
2018-11-21T13:55:12.145Z,7.37
2018-11-21T13:57:58.403Z,7.27
2018-11-21T14:00:25.754Z,7.11
2018-11-21T14:03:12.147Z,6.92
2018-11-21T14:05:39.497Z,6.80
2018-11-21T14:08:25.833Z,6.71
2018-11-21T14:11:12.159Z,6.63
2018-11-21T14:14:01.430Z,6.57
2018-11-21T14:16:25.856Z,6.47
2018-11-21T14:19:13.430Z,6.36
2018-11-21T14:21:39.614Z,6.24
2018-11-21T14:26:59.769Z,5.95
2018-11-21T14:32:32.331Z,5.69
2018-11-21T14:35:01.476Z,5.57
2018-11-21T14:37:46.023Z,5.46
2018-11-21T14:40:14.570Z,5.37
2018-11-21T14:43:00.824Z,5.28
2018-11-21T14:45:28.308Z,5.23
2018-11-21T14:48:14.570Z,5.14
2018-11-21T14:50:42.109Z,5.08
2018-11-21T14:53:09.456Z,5.02
2018-11-21T14:55:58.219Z,4.95
2018-11-21T14:58:25.969Z,4.88
2018-11-21T15:00:53.339Z,4.80
2018-11-21T15:03:39.685Z,4.75
2018-11-21T15:06:07.033Z,4.70
2018-11-21T15:08:34.454Z,4.63
2018-11-21T15:11:01.870Z,4.56
2018-11-21T15:13:29.283Z,4.49
2018-11-21T15:16:15.619Z,4.45
2018-11-21T15:18:47.826Z,4.40
2018-11-21T15:24:20.382Z,4.31
2018-11-21T15:26:47.728Z,4.25
2018-11-21T15:29:18.575Z,4.19
2018-11-21T15:31:45.925Z,4.12
2018-11-21T15:34:13.748Z,4.07
2018-11-21T15:36:41.472Z,4.04
2018-11-21T15:39:09.327Z,3.99
2018-11-21T15:44:15.284Z,3.94
2018-11-21T15:46:45.828Z,3.90
2018-11-21T15:49:11.724Z,3.87
2018-11-21T15:51:40.292Z,3.82
2018-11-21T15:54:08.109Z,3.77
2018-11-21T15:56:35.559Z,3.74
2018-11-21T15:59:03.332Z,3.71
2018-11-21T16:01:30.812Z,3.66
2018-11-21T16:04:01.228Z,3.63
2018-11-21T16:06:29.075Z,3.59
2018-11-21T16:08:56.435Z,3.57
2018-11-21T16:11:23.802Z,3.53
2018-11-21T16:13:53.972Z,3.51
2018-11-21T16:16:23.330Z,3.47
2018-11-21T16:18:48.769Z,3.46
2018-11-21T16:21:16.621Z,3.43
2018-11-21T16:23:44.218Z,3.41
2018-11-21T16:26:13.768Z,3.39
2018-11-21T16:28:41.460Z,3.36
2018-11-21T16:31:08.998Z,3.31
2018-11-21T16:33:36.429Z,3.28
2018-11-21T16:36:04.205Z,3.23
2018-11-21T16:38:31.706Z,3.14
2018-11-21T16:40:59.058Z,3.09
2018-11-21T16:43:26.492Z,3.04
2018-11-21T16:45:55.686Z,2.99
2018-11-21T16:48:23.390Z,2.94
2018-11-21T16:50:52.808Z,2.90
2018-11-21T16:53:20.227Z,2.86
2018-11-21T16:55:49.320Z,2.82
2018-11-21T16:58:15.453Z,2.81
2018-11-21T17:00:42.893Z,2.79
2018-11-21T17:03:17.185Z,2.77
2018-11-21T17:05:44.601Z,2.78
2018-11-21T17:08:12.025Z,2.77
2018-11-21T17:10:39.912Z,2.77
2018-11-21T17:13:07.251Z,2.77
2018-11-21T17:15:35.347Z,2.76
2018-11-21T17:18:03.153Z,2.72
2018-11-21T17:20:31.994Z,2.72
2018-11-21T17:23:00.254Z,2.75
2018-11-21T17:25:46.570Z,2.80
2018-11-21T17:28:16.836Z,2.83
2018-11-21T17:30:44.271Z,2.87
2018-11-21T17:33:12.206Z,2.91
2018-11-21T17:35:39.632Z,2.96
2018-11-21T17:38:06.971Z,3.02
2018-11-21T17:40:36.665Z,3.06
2018-11-21T17:43:04.034Z,3.10
2018-11-21T17:45:31.474Z,3.13
2018-11-21T17:47:59.231Z,3.15
2018-11-21T17:50:26.600Z,3.19
2018-11-21T17:52:55.836Z,3.24
2018-11-21T17:55:25.158Z,3.27
2018-11-21T17:58:11.437Z,3.30
2018-11-21T18:00:39.504Z,3.31
2018-11-21T18:03:08.277Z,3.32
2018-11-21T18:05:44.824Z,3.34
2018-11-21T18:08:12.590Z,3.35
2018-11-21T18:10:41.262Z,3.39
2018-11-21T18:13:08.665Z,3.45
2018-11-21T18:15:36.482Z,3.50
2018-11-21T18:18:03.905Z,3.54
2018-11-21T18:20:31.356Z,3.57
2018-11-21T18:22:59.033Z,3.59
2018-11-21T18:25:46.024Z,3.62
2018-11-21T18:28:13.802Z,3.64
2018-11-21T18:30:41.641Z,3.66
2018-11-21T18:33:09.043Z,3.67
2018-11-21T18:35:36.460Z,3.68
2018-11-21T18:38:04.279Z,3.68
2018-11-21T18:40:32.203Z,3.70
2018-11-21T18:42:59.620Z,3.69
2018-11-21T18:45:30.441Z,3.71
2018-11-21T18:53:05.763Z,3.76
2018-11-21T18:55:33.182Z,3.77
2018-11-21T18:58:00.552Z,3.78
2018-11-21T19:00:28.380Z,3.78
2018-11-21T19:02:55.722Z,3.79
2018-11-21T19:05:23.661Z,3.79
2018-11-21T19:07:51.298Z,3.80
2018-11-21T19:10:20.975Z,3.79
2018-11-21T19:12:48.391Z,3.78
2018-11-21T19:15:17.016Z,3.77
2018-11-21T19:17:44.441Z,3.78
2018-11-21T19:20:12.796Z,3.78
2018-11-21T19:23:03.266Z,3.81
2018-11-21T19:28:41.501Z,3.84
